createdAt,value
2022-09-20T00:03:52.586Z,1.3
2022-09-20T00:05:26.167Z,1.0
2022-09-20T00:05:58.712Z,1.0
2022-09-20T00:10:14.499Z,1.0
2022-09-20T00:10:30.056Z,1.1
2022-09-20T00:15:25.827Z,0.9
2022-09-20T00:17:37.931Z,0.9
2022-09-20T00:20:25.765Z,1.1
2022-09-20T00:23:35.332Z,1.1
2022-09-20T00:25:29.628Z,1.3
2022-09-20T00:27:04.091Z,1.3
2022-09-20T00:30:25.584Z,1.2
2022-09-20T00:35:25.473Z,1.4
2022-09-20T00:40:25.437Z,0.8
2022-09-20T00:45:25.199Z,1.0
2022-09-20T00:50:25.186Z,1.1
2022-09-20T01:04:13.141Z,1.1
2022-09-20T01:05:24.677Z,1.2
2022-09-20T01:10:24.580Z,1.1
2022-09-20T01:15:24.404Z,1.2
2022-09-20T01:20:24.277Z,1.0
2022-09-20T01:25:24.100Z,1.2
2022-09-20T01:30:23.970Z,1.0
2022-09-20T01:40:25.448Z,0.9
2022-09-20T01:45:23.543Z,1.1
2022-09-20T01:55:23.245Z,1.0
2022-09-20T02:00:23.037Z,1.3
2022-09-20T02:05:22.772Z,1.1
2022-09-20T02:10:22.459Z,1.0
2022-09-20T02:15:22.202Z,1.3
2022-09-20T02:20:21.983Z,0.9
2022-09-20T02:23:06.700Z,0.9
2022-09-20T02:25:26.185Z,1.0
2022-09-20T02:27:59.927Z,1.0
2022-09-20T02:30:21.369Z,0.8
2022-09-20T02:35:21.145Z,1.0
2022-09-20T02:40:20.996Z,0.9
2022-09-20T02:45:20.652Z,1.2
2022-09-20T02:50:20.345Z,1.0
2022-09-20T02:55:20.342Z,0.9
2022-09-20T03:00:19.868Z,0.8
2022-09-20T03:05:19.671Z,0.9
2022-09-20T03:10:19.385Z,1.1
2022-09-20T03:15:19.071Z,0.6
2022-09-20T03:20:18.786Z,0.9
2022-09-20T03:25:18.545Z,0.8
2022-09-20T03:30:18.185Z,1.2
2022-09-20T03:35:17.858Z,0.8
2022-09-20T03:40:17.598Z,1.0
2022-09-20T03:45:17.384Z,0.8
2022-09-20T03:50:19.080Z,1.0
2022-09-20T03:55:16.543Z,0.9
2022-09-20T04:00:16.277Z,1.2
2022-09-20T04:05:15.874Z,1.1
2022-09-20T04:10:15.656Z,1.4
2022-09-20T04:15:15.225Z,1.0
2022-09-20T04:20:14.955Z,1.6
2022-09-20T04:25:14.610Z,1.1
2022-09-20T04:30:14.342Z,1.4
2022-09-20T04:35:13.920Z,1.2
2022-09-20T04:40:15.129Z,1.4
2022-09-20T04:45:13.249Z,1.0
2022-09-20T04:50:13.002Z,1.3
2022-09-20T05:00:12.384Z,1.4
2022-09-20T05:05:12.044Z,1.5
2022-09-20T05:10:11.765Z,1.3
2022-09-20T05:15:11.399Z,1.5
2022-09-20T05:20:12.331Z,1.4
2022-09-20T05:40:09.795Z,1.5
2022-09-20T05:45:09.439Z,1.4
2022-09-20T05:50:08.958Z,1.9
2022-09-20T05:55:08.624Z,1.7
2022-09-20T06:00:08.261Z,1.1
2022-09-20T06:05:07.893Z,1.3
2022-09-20T06:10:07.573Z,1.0
2022-09-20T06:15:07.153Z,1.4
2022-09-20T06:20:06.832Z,1.3
2022-09-20T06:25:06.452Z,1.6
2022-09-20T06:30:06.126Z,1.4
2022-09-20T06:35:05.648Z,1.5
2022-09-20T06:40:05.336Z,1.6
2022-09-20T06:45:04.860Z,1.8
2022-09-20T06:50:04.599Z,2.1
2022-09-20T06:55:04.161Z,1.8
2022-09-20T07:00:03.935Z,1.6
2022-09-20T07:05:03.508Z,1.5
2022-09-20T07:10:03.260Z,1.8
2022-09-20T07:15:02.994Z,1.3
2022-09-20T07:20:02.631Z,1.6
2022-09-20T07:25:02.357Z,1.5
2022-09-20T07:30:02.253Z,2.2
2022-09-20T07:35:01.763Z,2.1
2022-09-20T07:40:01.640Z,2.3
2022-09-20T07:45:01.306Z,2.5
2022-09-20T07:50:01.109Z,3.4
2022-09-20T07:55:00.852Z,2.6
2022-09-20T08:00:00.691Z,3.2
2022-09-20T08:10:00.329Z,2.9
2022-09-20T08:15:00.349Z,3.2
2022-09-20T08:20:00.198Z,3.8
2022-09-20T08:25:01.163Z,3.4
2022-09-20T08:29:59.865Z,3.0
2022-09-20T08:34:59.837Z,3.2
2022-09-20T08:39:59.730Z,3.9
2022-09-20T08:44:59.623Z,3.0
2022-09-20T08:49:59.469Z,3.2
2022-09-20T08:54:59.432Z,3.4
2022-09-20T08:59:59.415Z,3.7
2022-09-20T09:10:03.855Z,3.1
2022-09-20T09:15:00.622Z,4.3
2022-09-20T09:19:59.280Z,6.9
2022-09-20T09:24:59.129Z,6.0
2022-09-20T09:29:59.072Z,4.4
2022-09-20T09:34:59.029Z,3.9
2022-09-20T09:39:59.075Z,3.2
2022-09-20T09:44:59.038Z,2.8
2022-09-20T09:50:00.757Z,2.7
2022-09-20T09:55:01.864Z,2.8
2022-09-20T09:59:59.679Z,1.8
2022-09-20T10:04:59.292Z,1.4
2022-09-20T10:09:59.405Z,1.7
2022-09-20T10:14:59.513Z,1.3
2022-09-20T10:19:59.659Z,1.1
2022-09-20T10:24:59.734Z,1.7
2022-09-20T10:29:59.921Z,2.0
2022-09-20T10:34:59.985Z,1.6
2022-09-20T10:40:00.304Z,1.4
2022-09-20T10:50:00.475Z,1.5
2022-09-20T10:55:00.649Z,1.2
2022-09-20T11:00:00.706Z,0.9
2022-09-20T11:05:00.900Z,1.2
2022-09-20T11:10:01.108Z,0.8
2022-09-20T11:15:01.221Z,1.0
2022-09-20T11:20:06.862Z,1.1
2022-09-20T11:25:01.622Z,0.7
2022-09-20T11:30:01.858Z,0.9
2022-09-20T11:35:02.039Z,1.0
2022-09-20T11:40:02.271Z,0.7
2022-09-20T11:45:02.546Z,0.8
2022-09-20T11:50:02.911Z,0.7
2022-09-20T11:55:03.047Z,0.9
2022-09-20T12:10:04.186Z,0.7
2022-09-20T12:15:04.542Z,0.8
2022-09-20T12:25:10.099Z,0.5
2022-09-20T12:30:05.913Z,0.7
2022-09-20T12:35:06.442Z,0.8
2022-09-20T12:40:06.975Z,0.5
2022-09-20T12:45:07.482Z,0.4
2022-09-20T12:50:08.034Z,0.5
2022-09-20T12:53:14.017Z,0.5
2022-09-20T13:00:34.145Z,0.5
2022-09-20T13:05:20.202Z,0.7
2022-09-20T13:05:33.105Z,0.7
2022-09-20T13:10:10.571Z,0.5
2022-09-20T13:14:15.173Z,0.5
2022-09-20T13:25:13.509Z,0.6
2022-09-20T13:40:14.180Z,0.5
2022-09-20T13:45:14.527Z,0.8
2022-09-20T13:50:15.038Z,0.5
2022-09-20T13:55:15.451Z,0.6
2022-09-20T13:58:19.603Z,0.6
2022-09-20T14:00:15.912Z,0.5
2022-09-20T14:02:46.352Z,0.5
2022-09-20T14:07:52.204Z,0.5
2022-09-20T14:10:16.590Z,0.6
2022-09-20T14:15:17.021Z,0.7
2022-09-20T14:20:18.445Z,0.4
2022-09-20T14:25:17.693Z,0.5
2022-09-20T14:30:18.415Z,0.6
2022-09-20T14:32:58.116Z,0.6
2022-09-20T14:35:18.473Z,0.4
2022-09-20T14:40:18.757Z,0.5
2022-09-20T14:50:19.359Z,0.7
2022-09-20T14:55:19.676Z,0.5
2022-09-20T15:00:24.394Z,0.6
2022-09-20T15:01:47.392Z,0.6
2022-09-20T15:04:02.735Z,0.6
2022-09-20T15:05:24.428Z,0.5
2022-09-20T15:07:21.775Z,0.5
2022-09-20T15:10:20.580Z,0.8
2022-09-20T15:11:27.520Z,0.8
2022-09-20T15:12:34.040Z,0.8
2022-09-20T15:20:25.679Z,0.6
2022-09-20T15:27:39.656Z,0.6
2022-09-20T15:30:26.109Z,0.5
2022-09-20T15:35:23.747Z,0.6
2022-09-20T15:36:54.400Z,0.6
2022-09-20T15:40:22.556Z,0.7
2022-09-20T15:50:17.975Z,0.7
2022-09-20T15:50:23.898Z,0.8
2022-09-20T15:53:10.044Z,0.8
2022-09-20T15:55:23.296Z,0.5
2022-09-20T16:00:23.596Z,0.6
2022-09-20T16:15:24.369Z,0.8
2022-09-20T16:20:24.562Z,0.6
2022-09-20T16:35:25.281Z,0.9
2022-09-20T16:40:25.658Z,0.8
2022-09-20T16:45:30.204Z,0.6
2022-09-20T16:50:27.510Z,0.7
2022-09-20T16:55:26.269Z,0.6
2022-09-20T17:20:27.238Z,0.5
2022-09-20T17:25:27.403Z,0.7
2022-09-20T17:30:27.698Z,0.9
2022-09-20T17:40:28.003Z,1.4
2022-09-20T17:45:28.087Z,0.9
2022-09-20T17:50:28.202Z,2.1
2022-09-20T17:55:28.545Z,1.2
2022-09-20T18:00:28.462Z,1.4
2022-09-20T18:05:28.656Z,0.9
2022-09-20T18:10:28.733Z,1.4
2022-09-20T18:20:33.213Z,1.2
2022-09-20T18:25:27.671Z,1.2
2022-09-20T18:25:33.299Z,1.0
2022-09-20T18:29:25.827Z,1.0
2022-09-20T18:30:28.926Z,1.1
2022-09-20T18:45:33.482Z,1.4
2022-09-20T18:50:29.062Z,1.1
2022-09-20T18:55:29.175Z,1.6
2022-09-20T19:05:29.303Z,1.2
2022-09-20T19:10:29.183Z,1.1
2022-09-20T19:15:29.206Z,1.0
2022-09-20T19:20:29.244Z,1.3
2022-09-20T19:25:29.244Z,1.4
2022-09-20T19:35:29.182Z,3.1
2022-09-20T19:40:29.228Z,4.3
2022-09-20T19:45:29.118Z,2.7
2022-09-20T19:52:58.260Z,2.7
2022-09-20T19:55:29.062Z,2.2
2022-09-20T20:00:29.053Z,3.3
2022-09-20T20:05:33.517Z,3.2
2022-09-20T20:10:28.487Z,3.2
2022-09-20T20:10:28.802Z,2.8
2022-09-20T20:15:28.980Z,3.1
2022-09-20T20:20:28.944Z,2.8
2022-09-20T20:25:28.948Z,2.9
2022-09-20T20:30:28.863Z,3.1
2022-09-20T20:35:28.898Z,2.5
2022-09-20T20:40:28.775Z,2.3
2022-09-20T20:45:28.787Z,1.7
2022-09-20T20:50:28.891Z,1.8
2022-09-20T20:55:28.628Z,1.5
2022-09-20T21:00:28.714Z,1.4
2022-09-20T21:04:36.534Z,1.4
2022-09-20T21:05:30.051Z,1.6
2022-09-20T21:10:28.628Z,1.5
2022-09-20T21:15:28.772Z,1.1
2022-09-20T21:20:28.604Z,1.5
2022-09-20T21:22:43.946Z,1.5
2022-09-20T21:25:28.569Z,1.6
2022-09-20T21:35:29.692Z,1.7
2022-09-20T21:37:05.794Z,1.7
2022-09-20T21:40:28.636Z,1.4
2022-09-20T21:45:28.625Z,1.5
2022-09-20T22:00:28.466Z,1.3
2022-09-20T22:05:28.355Z,1.8
2022-09-20T22:10:28.366Z,1.4
2022-09-20T22:15:28.338Z,1.5
2022-09-20T22:19:59.332Z,1.5
2022-09-20T22:20:28.330Z,1.4
2022-09-20T22:25:28.223Z,1.7
2022-09-20T22:30:29.305Z,1.4
2022-09-20T22:35:28.084Z,1.5
2022-09-20T22:40:28.055Z,1.3
2022-09-20T22:45:27.947Z,1.7
2022-09-20T22:50:27.908Z,2.0
2022-09-20T23:00:28.091Z,2.3
2022-09-20T23:05:27.734Z,2.2
2022-09-20T23:10:27.737Z,2.3
2022-09-20T23:15:27.686Z,1.9
2022-09-20T23:20:27.691Z,2.4
2022-09-20T23:25:27.596Z,2.8
2022-09-20T23:30:27.658Z,2.5
2022-09-20T23:35:27.493Z,1.8
2022-09-20T23:45:27.419Z,2.5
2022-09-20T23:50:27.265Z,2.0
2022-09-20T23:55:27.273Z,2.2
